createdAt,value
2022-08-14T00:01:10.416Z,60.29
2022-08-14T00:03:40.635Z,59.63
2022-08-14T00:06:25.701Z,60.06
2022-08-14T00:08:59.289Z,60.58
2022-08-14T00:11:28.788Z,60.24
2022-08-14T00:13:59.295Z,59.91
2022-08-14T00:16:41.499Z,59.88
2022-08-14T00:19:19.474Z,60.15
2022-08-14T00:21:52.266Z,59.69
2022-08-14T00:24:28.268Z,60.75
2022-08-14T00:27:02.124Z,61.11
2022-08-14T00:29:39.951Z,61.47
2022-08-14T00:32:51.978Z,62.53
2022-08-14T00:34:56.406Z,63.15
2022-08-14T00:37:23.271Z,63.10
2022-08-14T00:39:51.141Z,62.55
2022-08-14T00:42:52.836Z,63.21
2022-08-14T00:45:11.373Z,63.36
2022-08-14T00:47:43.196Z,63.16
2022-08-14T00:50:17.649Z,63.38
2022-08-14T00:52:51.215Z,63.70
2022-08-14T00:55:19.926Z,63.54
2022-08-14T00:58:07.949Z,64.03
2022-08-14T01:00:37.266Z,64.42
2022-08-14T01:03:17.448Z,64.38
2022-08-14T01:05:51.692Z,64.05
2022-08-14T01:08:51.114Z,64.22
2022-08-14T01:11:08.132Z,64.28
2022-08-14T01:13:42.526Z,64.53
2022-08-14T01:16:14.926Z,65.75
2022-08-14T01:19:02.324Z,66.18
2022-08-14T01:21:47.110Z,66.67
2022-08-14T01:24:22.995Z,66.65
2022-08-14T01:27:00.176Z,66.77
2022-08-14T01:29:58.201Z,66.22
2022-08-14T01:32:23.325Z,66.68
2022-08-14T01:35:18.128Z,66.85
2022-08-14T01:37:56.531Z,67.21
2022-08-14T01:40:36.672Z,67.40
2022-08-14T01:43:14.693Z,67.39
2022-08-14T01:45:42.328Z,68.20
2022-08-14T01:48:13.756Z,67.76
2022-08-14T01:50:41.828Z,68.21
2022-08-14T01:53:09.521Z,67.54
2022-08-14T01:55:38.820Z,67.38
2022-08-14T01:58:19.870Z,66.83
2022-08-14T02:00:55.156Z,66.53
2022-08-14T02:03:30.812Z,67.03
2022-08-14T02:05:59.547Z,67.87
2022-08-14T02:08:34.784Z,68.54
2022-08-14T02:11:22.283Z,69.98
2022-08-14T02:14:10.085Z,69.35
2022-08-14T02:16:43.872Z,68.90
2022-08-14T02:19:15.709Z,69.47
2022-08-14T02:21:48.981Z,69.66
2022-08-14T02:24:39.466Z,70.07
2022-08-14T02:28:22.183Z,70.34
2022-08-14T02:29:59.190Z,71.26
2022-08-14T02:32:30.675Z,71.08
2022-08-14T02:35:10.155Z,71.70
2022-08-14T02:37:47.239Z,71.43
2022-08-14T02:40:15.605Z,70.84
2022-08-14T02:42:54.779Z,70.75
2022-08-14T02:45:32.934Z,71.59
2022-08-14T02:48:03.144Z,71.68
2022-08-14T02:50:29.735Z,71.30
2022-08-14T02:53:02.993Z,70.94
2022-08-14T02:55:30.986Z,71.29
2022-08-14T02:58:03.290Z,71.15
2022-08-14T03:00:33.000Z,71.68
2022-08-14T03:03:01.054Z,71.84
2022-08-14T03:05:33.135Z,70.90
2022-08-14T03:08:08.124Z,72.19
2022-08-14T03:10:34.767Z,71.90
2022-08-14T03:13:04.378Z,73.27
2022-08-14T03:15:33.148Z,72.89
2022-08-14T03:18:00.953Z,72.55
2022-08-14T03:20:29.257Z,73.81
2022-08-14T03:22:59.325Z,73.81
2022-08-14T03:25:26.959Z,73.96
2022-08-14T03:27:58.704Z,73.93
2022-08-14T03:30:39.014Z,73.63
2022-08-14T03:33:10.657Z,73.74
2022-08-14T03:35:40.339Z,73.92
2022-08-14T03:39:13.230Z,75.61
2022-08-14T03:41:17.156Z,75.10
2022-08-14T03:43:44.702Z,75.55
2022-08-14T03:46:52.139Z,74.95
2022-08-14T03:49:01.328Z,74.94
2022-08-14T03:51:29.894Z,74.97
2022-08-14T03:53:57.885Z,75.52
2022-08-14T03:56:26.606Z,74.75
2022-08-14T03:58:57.488Z,74.37
2022-08-14T04:01:29.314Z,73.94
2022-08-14T04:04:07.808Z,74.91
2022-08-14T04:06:45.232Z,75.05
2022-08-14T04:09:14.575Z,74.37
2022-08-14T04:11:43.874Z,73.97
2022-08-14T04:14:10.395Z,73.73
2022-08-14T04:16:48.066Z,74.11
2022-08-14T04:19:23.804Z,73.82
2022-08-14T04:22:03.266Z,73.61
2022-08-14T04:24:37.804Z,74.76
2022-08-14T04:27:10.377Z,74.57
2022-08-14T04:29:42.609Z,75.21
2022-08-14T04:33:10.254Z,75.55
2022-08-14T04:34:58.873Z,74.42
2022-08-14T04:37:45.480Z,74.39
2022-08-14T04:40:32.245Z,74.20
2022-08-14T04:43:18.104Z,75.02
2022-08-14T04:45:45.402Z,74.22
2022-08-14T04:48:39.460Z,74.80
2022-08-14T04:51:07.587Z,73.54
2022-08-14T04:53:43.258Z,73.85
2022-08-14T04:56:31.457Z,74.67
2022-08-14T04:59:10.679Z,75.07
2022-08-14T05:01:47.651Z,75.40
2022-08-14T05:04:20.173Z,74.48
2022-08-14T05:06:49.059Z,74.51
2022-08-14T05:09:16.231Z,74.34
2022-08-14T05:11:44.616Z,74.95
2022-08-14T05:14:17.326Z,74.12
2022-08-14T05:17:01.792Z,74.74
2022-08-14T05:22:16.720Z,74.44
2022-08-14T05:24:48.771Z,73.82
2022-08-14T05:27:19.843Z,73.98
2022-08-14T05:29:49.054Z,73.70
2022-08-14T05:32:16.353Z,74.04
2022-08-14T05:34:45.786Z,73.42
2022-08-14T05:37:15.408Z,73.21
2022-08-14T05:39:43.008Z,72.37
2022-08-14T05:42:09.976Z,72.77
2022-08-14T05:44:48.129Z,72.07
2022-08-14T05:47:16.034Z,72.62
2022-08-14T05:49:43.701Z,72.05
2022-08-14T05:52:10.709Z,72.63
2022-08-14T05:54:44.514Z,72.86
2022-08-14T05:57:11.014Z,73.20
2022-08-14T05:59:39.892Z,72.93
2022-08-14T06:02:10.995Z,73.07
2022-08-14T06:04:39.378Z,73.26
2022-08-14T06:07:06.874Z,71.69
2022-08-14T06:09:36.025Z,72.78
2022-08-14T06:12:10.667Z,72.33
2022-08-14T06:14:39.303Z,71.72
2022-08-14T06:17:07.192Z,71.40
2022-08-14T06:19:33.743Z,72.22
2022-08-14T06:22:00.267Z,72.76
2022-08-14T06:24:30.457Z,71.93
2022-08-14T06:27:04.267Z,71.94
2022-08-14T06:29:34.695Z,72.98
2022-08-14T06:32:37.528Z,72.04
2022-08-14T06:35:03.291Z,71.02
2022-08-14T06:37:52.284Z,71.63
2022-08-14T06:40:28.421Z,71.24
2022-08-14T06:43:03.733Z,70.81
2022-08-14T06:45:35.148Z,71.00
2022-08-14T06:48:06.212Z,70.18
2022-08-14T06:50:39.685Z,69.10
2022-08-14T06:53:07.287Z,69.58
2022-08-14T06:55:34.419Z,68.99
2022-08-14T06:58:04.277Z,69.33
2022-08-14T07:00:32.637Z,68.51
2022-08-14T07:03:19.424Z,67.95
2022-08-14T07:05:55.402Z,68.04
2022-08-14T07:08:31.601Z,67.63
2022-08-14T07:11:03.909Z,66.98
2022-08-14T07:13:31.029Z,67.03
2022-08-14T07:15:59.198Z,66.55
2022-08-14T07:18:33.243Z,66.72
2022-08-14T07:21:01.478Z,66.51
2022-08-14T07:23:28.213Z,66.14
2022-08-14T07:26:00.151Z,65.51
2022-08-14T07:28:29.886Z,65.45
2022-08-14T07:31:04.835Z,65.38
2022-08-14T07:33:41.937Z,64.87
2022-08-14T07:36:27.204Z,64.68
2022-08-14T07:39:00.588Z,65.86
2022-08-14T07:41:33.671Z,63.67
2022-08-14T07:44:29.243Z,63.41
2022-08-14T07:46:50.212Z,63.11
2022-08-14T07:49:17.777Z,63.54
2022-08-14T07:51:45.306Z,62.88
2022-08-14T07:54:12.251Z,62.98
2022-08-14T07:56:44.482Z,63.63
2022-08-14T07:59:18.013Z,64.05
2022-08-14T08:01:51.338Z,62.89
2022-08-14T08:04:24.088Z,63.45
2022-08-14T08:06:52.385Z,62.37
2022-08-14T08:09:23.817Z,61.30
2022-08-14T08:11:54.587Z,61.82
2022-08-14T08:14:25.265Z,61.57
2022-08-14T08:16:53.958Z,62.31
2022-08-14T08:19:20.531Z,61.36
2022-08-14T08:21:48.014Z,63.23
2022-08-14T08:24:19.721Z,62.45
2022-08-14T08:26:50.380Z,59.75
2022-08-14T08:29:22.471Z,59.40
2022-08-14T08:31:55.452Z,60.00
2022-08-14T08:34:23.713Z,60.01
2022-08-14T08:36:51.540Z,59.39
2022-08-14T08:39:22.002Z,59.48
2022-08-14T08:41:53.374Z,59.62
2022-08-14T08:44:32.570Z,58.80
2022-08-14T08:47:05.426Z,58.23
2022-08-14T08:49:41.994Z,57.56
2022-08-14T08:52:15.199Z,58.45
2022-08-14T08:54:55.789Z,58.69
2022-08-14T08:57:22.369Z,56.88
2022-08-14T08:59:54.848Z,56.36
2022-08-14T09:02:22.684Z,57.54
2022-08-14T09:05:02.257Z,57.48
2022-08-14T09:07:28.943Z,56.07
2022-08-14T09:10:00.073Z,56.83
2022-08-14T09:12:33.459Z,56.03
2022-08-14T09:15:12.204Z,55.11
2022-08-14T09:17:41.344Z,55.70
2022-08-14T09:20:11.596Z,55.85
2022-08-14T09:22:42.392Z,54.63
2022-08-14T09:25:15.362Z,55.47
2022-08-14T09:27:42.317Z,53.95
2022-08-14T09:30:30.661Z,55.87
2022-08-14T09:33:11.021Z,53.45
2022-08-14T09:35:39.200Z,53.79
2022-08-14T09:38:25.819Z,52.82
2022-08-14T09:42:21.075Z,51.96
2022-08-14T09:44:27.546Z,51.01
2022-08-14T09:46:57.943Z,51.30
2022-08-14T09:49:39.969Z,50.82
2022-08-14T09:52:32.953Z,52.26
2022-08-14T09:54:59.376Z,50.58
2022-08-14T09:57:28.957Z,50.16
2022-08-14T09:59:55.890Z,50.03
2022-08-14T10:02:27.990Z,49.72
2022-08-14T10:05:10.030Z,49.34
2022-08-14T10:07:53.863Z,48.58
2022-08-14T10:10:39.497Z,48.42
2022-08-14T10:13:21.595Z,48.19
2022-08-14T10:15:51.343Z,48.25
2022-08-14T10:18:20.223Z,48.67
2022-08-14T10:20:58.269Z,48.60
2022-08-14T10:23:27.877Z,47.04
2022-08-14T10:26:06.588Z,46.97
2022-08-14T10:29:18.183Z,47.82
2022-08-14T10:31:44.519Z,47.18
2022-08-14T10:34:14.184Z,47.29
2022-08-14T10:36:47.510Z,46.84
2022-08-14T10:39:27.693Z,47.82
2022-08-14T10:42:18.336Z,46.62
2022-08-14T10:44:52.347Z,47.31
2022-08-14T10:47:41.287Z,46.93
2022-08-14T10:50:07.803Z,46.39
2022-08-14T10:52:42.407Z,45.63
2022-08-14T10:55:16.045Z,45.97
2022-08-14T10:57:53.670Z,46.23
2022-08-14T11:00:30.268Z,46.56
2022-08-14T11:03:02.872Z,48.01
2022-08-14T11:05:43.794Z,44.67
2022-08-14T11:08:12.928Z,44.55
2022-08-14T11:10:43.932Z,44.40
2022-08-14T11:13:16.391Z,44.35
2022-08-14T11:15:45.134Z,46.10
2022-08-14T11:18:20.467Z,44.98
2022-08-14T11:20:59.741Z,45.48
2022-08-14T11:23:38.479Z,44.77
2022-08-14T11:26:08.696Z,44.24
2022-08-14T11:28:48.144Z,44.13
2022-08-14T11:31:19.739Z,45.02
2022-08-14T11:33:58.254Z,42.24
2022-08-14T11:36:35.400Z,43.36
2022-08-14T11:39:23.153Z,41.93
2022-08-14T11:42:55.541Z,43.44
2022-08-14T11:44:53.892Z,41.22
2022-08-14T11:47:26.902Z,42.47
2022-08-14T11:50:13.276Z,42.24
2022-08-14T11:52:40.571Z,44.18
2022-08-14T11:55:13.524Z,42.04
2022-08-14T11:57:41.850Z,41.25
2022-08-14T12:00:19.501Z,41.01
2022-08-14T12:03:03.331Z,41.97
2022-08-14T12:05:33.728Z,41.59
2022-08-14T12:08:11.899Z,41.44
2022-08-14T12:10:43.510Z,42.11
2022-08-14T12:13:19.110Z,39.97
2022-08-14T12:15:58.687Z,40.76
2022-08-14T12:18:33.003Z,39.60
2022-08-14T12:21:21.214Z,41.32
2022-08-14T12:24:08.412Z,39.35
2022-08-14T12:26:40.520Z,39.40
2022-08-14T12:29:16.222Z,39.84
2022-08-14T12:31:46.805Z,41.88
2022-08-14T12:34:20.028Z,40.03
2022-08-14T12:36:47.539Z,39.60
2022-08-14T12:39:23.757Z,40.98
2022-08-14T12:41:56.919Z,40.09
2022-08-14T12:44:38.452Z,38.91
2022-08-14T12:47:29.499Z,39.43
2022-08-14T12:49:57.490Z,40.57
2022-08-14T12:52:56.052Z,39.58
2022-08-14T12:56:18.825Z,39.89
2022-08-14T12:58:35.254Z,41.56
2022-08-14T13:01:23.097Z,42.12
2022-08-14T13:03:51.831Z,39.76
2022-08-14T13:06:20.353Z,40.29
2022-08-14T13:08:53.232Z,41.60
2022-08-14T13:11:23.739Z,39.38
2022-08-14T13:13:57.889Z,39.00
2022-08-14T13:16:37.977Z,39.38
2022-08-14T13:19:11.698Z,40.45
2022-08-14T13:22:05.105Z,38.60
2022-08-14T13:24:27.907Z,39.61
2022-08-14T13:26:58.256Z,40.41
2022-08-14T13:29:31.404Z,38.58
2022-08-14T13:31:58.486Z,38.18
2022-08-14T13:34:28.024Z,38.41
2022-08-14T13:36:59.264Z,38.12
2022-08-14T13:39:31.432Z,38.40
2022-08-14T13:42:13.389Z,39.23
2022-08-14T13:44:42.951Z,37.52
2022-08-14T13:47:10.923Z,38.03
2022-08-14T13:49:40.423Z,37.41
2022-08-14T13:52:51.338Z,38.10
2022-08-14T13:55:15.548Z,37.63
2022-08-14T13:57:49.418Z,37.78
2022-08-14T14:00:32.536Z,37.49
2022-08-14T14:03:00.082Z,36.02
2022-08-14T14:05:52.184Z,36.77
2022-08-14T14:08:18.901Z,37.29
2022-08-14T14:11:02.353Z,36.73
2022-08-14T14:13:31.052Z,37.13
2022-08-14T14:16:02.760Z,37.46
2022-08-14T14:18:34.701Z,37.15
2022-08-14T14:21:02.704Z,36.78
2022-08-14T14:23:30.052Z,36.92
2022-08-14T14:25:57.684Z,38.44
2022-08-14T14:28:31.282Z,36.68
2022-08-14T14:31:01.325Z,36.57
2022-08-14T14:33:47.353Z,36.76
2022-08-14T14:36:21.429Z,37.61
2022-08-14T14:38:57.970Z,37.44
2022-08-14T14:41:38.487Z,38.01
2022-08-14T14:44:13.638Z,39.68
2022-08-14T14:46:49.452Z,36.88
2022-08-14T14:49:21.753Z,38.61
2022-08-14T14:51:51.543Z,40.20
2022-08-14T14:54:31.183Z,39.01
2022-08-14T14:57:00.156Z,36.50
2022-08-14T14:59:29.652Z,36.23
2022-08-14T15:02:08.210Z,36.69
2022-08-14T15:04:38.317Z,39.30
2022-08-14T15:07:06.527Z,39.47
2022-08-14T15:09:36.152Z,35.96
2022-08-14T15:12:16.149Z,36.12
2022-08-14T15:14:55.460Z,35.75
2022-08-14T15:17:24.933Z,36.10
2022-08-14T15:19:56.708Z,35.79
2022-08-14T15:22:25.171Z,36.02
2022-08-14T15:24:52.003Z,35.07
2022-08-14T15:27:26.385Z,34.88
2022-08-14T15:29:53.538Z,36.00
2022-08-14T15:32:23.261Z,35.77
2022-08-14T15:34:51.894Z,35.17
2022-08-14T15:37:22.909Z,39.20
2022-08-14T15:39:50.653Z,34.71
2022-08-14T15:42:22.977Z,37.23
2022-08-14T15:44:57.831Z,37.27
2022-08-14T15:47:31.708Z,34.90
2022-08-14T15:50:01.570Z,36.79
2022-08-14T15:52:32.851Z,35.59
2022-08-14T15:55:15.305Z,37.75
2022-08-14T15:58:01.529Z,36.13
2022-08-14T16:00:51.948Z,36.22
2022-08-14T16:03:27.813Z,37.04
2022-08-14T16:06:19.789Z,36.16
2022-08-14T16:08:50.310Z,38.49
2022-08-14T16:11:25.769Z,38.61
2022-08-14T16:13:57.719Z,38.00
2022-08-14T16:16:48.089Z,36.56
2022-08-14T16:19:18.863Z,36.79
2022-08-14T16:24:35.794Z,36.39
2022-08-14T16:27:07.522Z,36.64
2022-08-14T16:29:37.977Z,36.40
2022-08-14T16:32:32.108Z,39.29
2022-08-14T16:34:55.743Z,38.32
2022-08-14T16:37:23.480Z,40.04
2022-08-14T16:39:59.396Z,39.92
2022-08-14T16:40:24.105Z,37.91
2022-08-14T16:42:38.864Z,38.30
2022-08-14T16:45:17.804Z,39.09
2022-08-14T16:47:44.651Z,37.10
2022-08-14T16:50:15.225Z,37.67
2022-08-14T16:53:01.956Z,37.27
2022-08-14T16:55:33.986Z,37.05
2022-08-14T16:58:21.169Z,36.86
2022-08-14T17:00:53.824Z,37.97
2022-08-14T17:03:20.554Z,37.90
2022-08-14T17:05:48.191Z,39.19
2022-08-14T17:08:32.888Z,37.19
2022-08-14T17:11:10.807Z,37.49
2022-08-14T17:13:59.169Z,37.80
2022-08-14T17:16:38.929Z,37.50
2022-08-14T17:19:09.692Z,37.89
2022-08-14T17:21:41.069Z,37.95
2022-08-14T17:24:57.289Z,38.70
2022-08-14T17:27:03.927Z,39.91
2022-08-14T17:29:54.554Z,39.72
2022-08-14T17:35:16.563Z,40.79
2022-08-14T17:37:46.139Z,39.55
2022-08-14T17:40:16.586Z,39.81
2022-08-14T17:42:53.435Z,39.44
2022-08-14T17:45:43.190Z,39.53
2022-08-14T17:49:14.373Z,40.00
2022-08-14T17:51:17.021Z,40.48
2022-08-14T17:54:01.262Z,40.46
2022-08-14T17:56:31.008Z,41.02
2022-08-14T17:59:06.890Z,40.00
2022-08-14T18:01:45.608Z,40.69
2022-08-14T18:04:24.901Z,40.48
2022-08-14T18:07:50.524Z,40.52
2022-08-14T18:09:59.087Z,41.33
2022-08-14T18:12:37.194Z,41.52
2022-08-14T18:15:14.746Z,41.49
2022-08-14T18:17:52.521Z,42.04
2022-08-14T18:21:25.504Z,42.44
2022-08-14T18:23:13.700Z,41.78
2022-08-14T18:25:54.501Z,42.13
2022-08-14T18:28:48.401Z,42.32
2022-08-14T18:31:21.031Z,43.08
2022-08-14T18:33:55.204Z,42.53
2022-08-14T18:36:48.475Z,43.37
2022-08-14T18:40:01.267Z,42.48
2022-08-14T18:42:32.964Z,42.58
2022-08-14T18:45:01.620Z,42.55
2022-08-14T18:48:03.386Z,43.27
2022-08-14T18:50:27.495Z,44.40
2022-08-14T18:53:09.002Z,43.75
2022-08-14T18:55:37.172Z,44.20
2022-08-14T18:58:27.892Z,43.35
2022-08-14T19:01:02.123Z,43.17
2022-08-14T19:03:34.283Z,43.22
2022-08-14T19:06:08.992Z,43.40
2022-08-14T19:08:45.420Z,43.53
2022-08-14T19:11:34.285Z,44.11
2022-08-14T19:14:05.082Z,44.10
2022-08-14T19:16:36.776Z,44.33
2022-08-14T19:19:08.666Z,44.34
2022-08-14T19:21:55.105Z,44.88
2022-08-14T19:24:34.090Z,45.20
2022-08-14T19:27:23.733Z,44.51
2022-08-14T19:30:20.146Z,44.49
2022-08-14T19:32:50.769Z,45.30
2022-08-14T19:35:22.768Z,45.91
2022-08-14T19:37:56.193Z,46.15
2022-08-14T19:40:39.936Z,46.61
2022-08-14T19:43:09.281Z,46.66
2022-08-14T19:45:37.828Z,46.27
2022-08-14T19:48:12.435Z,47.49
2022-08-14T19:50:41.287Z,47.42
2022-08-14T19:53:17.393Z,46.94
2022-08-14T19:55:58.782Z,47.06
2022-08-14T19:58:55.071Z,47.48
2022-08-14T20:01:37.004Z,47.90
2022-08-14T20:04:46.327Z,47.96
2022-08-14T20:06:57.506Z,48.54
2022-08-14T20:11:07.733Z,49.03
2022-08-14T20:12:29.251Z,49.53
2022-08-14T20:15:08.800Z,49.75
2022-08-14T20:17:44.443Z,49.67
2022-08-14T20:20:30.698Z,49.66
2022-08-14T20:23:02.122Z,49.51
2022-08-14T20:25:56.677Z,49.33
2022-08-14T20:28:31.729Z,49.63
2022-08-14T20:31:17.785Z,49.49
2022-08-14T20:34:07.948Z,50.01
2022-08-14T20:36:46.032Z,50.61
2022-08-14T20:39:15.390Z,51.05
2022-08-14T20:41:51.033Z,50.95
2022-08-14T20:44:41.201Z,50.81
2022-08-14T20:47:15.043Z,51.07
2022-08-14T20:49:41.625Z,51.44
2022-08-14T20:52:18.908Z,50.91
2022-08-14T20:54:50.702Z,51.29
2022-08-14T20:57:18.845Z,50.73
2022-08-14T20:59:50.121Z,51.13
2022-08-14T21:02:34.476Z,51.80
2022-08-14T21:05:17.372Z,52.73
2022-08-14T21:07:50.953Z,52.69
2022-08-14T21:10:33.836Z,52.90
2022-08-14T21:14:08.889Z,53.08
2022-08-14T21:15:56.626Z,53.48
2022-08-14T21:18:25.055Z,53.57
2022-08-14T21:20:56.761Z,53.61
2022-08-14T21:23:23.346Z,54.18
2022-08-14T21:25:50.421Z,53.84
2022-08-14T21:28:30.142Z,54.39
2022-08-14T21:30:57.843Z,54.03
2022-08-14T21:33:25.031Z,53.89
2022-08-14T21:35:54.862Z,54.37
2022-08-14T21:38:33.490Z,54.32
2022-08-14T21:41:43.434Z,54.54
2022-08-14T21:44:18.346Z,55.04
2022-08-14T21:46:53.983Z,55.02
2022-08-14T21:49:34.138Z,55.47
2022-08-14T21:52:50.894Z,55.84
2022-08-14T21:55:08.714Z,55.65
2022-08-14T21:58:46.390Z,56.08
2022-08-14T22:00:36.562Z,56.50
2022-08-14T22:03:10.681Z,56.53
2022-08-14T22:05:41.797Z,56.54
2022-08-14T22:08:12.449Z,57.13
2022-08-14T22:10:42.486Z,57.13
2022-08-14T22:13:12.069Z,56.90
2022-08-14T22:15:43.915Z,57.28
2022-08-14T22:18:20.631Z,57.42
2022-08-14T22:20:53.743Z,57.24
2022-08-14T22:23:21.641Z,57.20
2022-08-14T22:25:51.078Z,57.53
2022-08-14T22:28:25.324Z,57.59
2022-08-14T22:30:55.032Z,57.60
2022-08-14T22:33:30.977Z,57.51
2022-08-14T22:35:59.319Z,57.17
2022-08-14T22:38:37.669Z,56.17
2022-08-14T22:41:28.037Z,56.30
2022-08-14T22:43:54.720Z,56.75
2022-08-14T22:46:21.738Z,56.80
2022-08-14T22:48:49.354Z,56.14
2022-08-14T22:51:18.888Z,56.17
2022-08-14T22:53:48.677Z,56.33
2022-08-14T22:56:21.150Z,56.66
2022-08-14T22:58:53.509Z,56.03
2022-08-14T23:01:56.920Z,55.90
2022-08-14T23:04:35.608Z,56.68
2022-08-14T23:07:22.085Z,56.05
2022-08-14T23:09:56.251Z,56.34
2022-08-14T23:12:28.396Z,56.56
2022-08-14T23:14:56.199Z,56.78
2022-08-14T23:17:22.762Z,57.31
2022-08-14T23:19:49.309Z,57.36
2022-08-14T23:22:24.272Z,57.26
2022-08-14T23:24:53.085Z,56.81
2022-08-14T23:27:32.055Z,56.33
2022-08-14T23:30:33.957Z,56.74
2022-08-14T23:33:03.084Z,57.47
2022-08-14T23:35:32.996Z,57.42
2022-08-14T23:38:05.478Z,57.00
2022-08-14T23:40:34.476Z,56.69
2022-08-14T23:43:09.572Z,56.29
2022-08-14T23:45:40.821Z,56.21
2022-08-14T23:48:12.407Z,55.05
2022-08-14T23:50:41.789Z,54.78
2022-08-14T23:53:47.299Z,55.08
2022-08-14T23:56:18.431Z,54.35
2022-08-14T23:58:49.285Z,55.22
